sensor_id;sensor_type;location;lat;lon;timestamp;pressure;altitude;pressure_sealevel;temperature;humidity
56084;BME280;41958;52.416;13.428;2022-11-20T00:00:37;100593.25;;;0.23;98.12
56084;BME280;41958;52.416;13.428;2022-11-20T00:03:02;100584.22;;;0.17;98.24
56084;BME280;41958;52.416;13.428;2022-11-20T00:05:27;100591.84;;;0.30;97.98
56084;BME280;41958;52.416;13.428;2022-11-20T00:07:52;100589.88;;;0.36;97.91
56084;BME280;41958;52.416;13.428;2022-11-20T00:10:18;100591.84;;;0.30;97.25
56084;BME280;41958;52.416;13.428;2022-11-20T00:12:43;100584.16;;;0.27;97.68
56084;BME280;41958;52.416;13.428;2022-11-20T00:15:09;100583.03;;;0.28;97.63
56084;BME280;41958;52.416;13.428;2022-11-20T00:17:35;100585.00;;;0.23;98.00
56084;BME280;41958;52.416;13.428;2022-11-20T00:20:00;100585.84;;;0.23;97.69
56084;BME280;41958;52.416;13.428;2022-11-20T00:22:25;100592.72;;;0.21;97.43
56084;BME280;41958;52.416;13.428;2022-11-20T00:24:50;100593.22;;;0.28;97.30
56084;BME280;41958;52.416;13.428;2022-11-20T00:27:15;100592.63;;;0.36;96.99
56084;BME280;41958;52.416;13.428;2022-11-20T00:29:41;100591.53;;;0.37;96.83
56084;BME280;41958;52.416;13.428;2022-11-20T00:32:06;100585.56;;;0.25;97.07
56084;BME280;41958;52.416;13.428;2022-11-20T00:34:31;100585.28;;;0.26;97.37
56084;BME280;41958;52.416;13.428;2022-11-20T00:36:56;100579.47;;;0.28;97.67
56084;BME280;41958;52.416;13.428;2022-11-20T00:39:22;100587.25;;;0.15;96.97
56084;BME280;41958;52.416;13.428;2022-11-20T00:41:47;100586.97;;;0.17;97.39
56084;BME280;41958;52.416;13.428;2022-11-20T00:44:12;100588.34;;;0.20;97.17
56084;BME280;41958;52.416;13.428;2022-11-20T00:46:37;100590.22;;;0.24;96.87
56084;BME280;41958;52.416;13.428;2022-11-20T00:49:03;100599.28;;;0.30;97.24
56084;BME280;41958;52.416;13.428;2022-11-20T00:51:28;100599.31;;;0.25;96.00
56084;BME280;41958;52.416;13.428;2022-11-20T00:53:57;100597.38;;;0.25;96.92
56084;BME280;41958;52.416;13.428;2022-11-20T00:56:25;100589.97;;;0.21;96.81
56084;BME280;41958;52.416;13.428;2022-11-20T00:58:50;100591.56;;;0.27;96.62
56084;BME280;41958;52.416;13.428;2022-11-20T01:01:18;100596.00;;;0.23;97.29
56084;BME280;41958;52.416;13.428;2022-11-20T01:03:47;100588.31;;;0.25;97.53
56084;BME280;41958;52.416;13.428;2022-11-20T01:06:22;100587.22;;;0.21;96.70
56084;BME280;41958;52.416;13.428;2022-11-20T01:08:49;100588.91;;;0.16;96.41
56084;BME280;41958;52.416;13.428;2022-11-20T01:11:18;100592.75;;;0.15;96.52
56084;BME280;41958;52.416;13.428;2022-11-20T01:13:45;100581.75;;;0.15;96.42
56084;BME280;41958;52.416;13.428;2022-11-20T01:16:22;100594.63;;;0.25;96.09
56084;BME280;41958;52.416;13.428;2022-11-20T01:18:50;100586.66;;;0.24;96.95
56084;BME280;41958;52.416;13.428;2022-11-20T01:21:18;100575.09;;;0.27;95.83
56084;BME280;41958;52.416;13.428;2022-11-20T01:23:44;100589.94;;;0.26;96.28
56084;BME280;41958;52.416;13.428;2022-11-20T01:26:12;100577.31;;;0.25;96.36
56084;BME280;41958;52.416;13.428;2022-11-20T01:28:38;100577.22;;;0.35;97.07
56084;BME280;41958;52.416;13.428;2022-11-20T01:33:41;100577.03;;;0.26;95.36
56084;BME280;41958;52.416;13.428;2022-11-20T01:36:07;100583.63;;;0.25;95.09
56084;BME280;41958;52.416;13.428;2022-11-20T01:38:33;100580.59;;;0.22;95.04
56084;BME280;41958;52.416;13.428;2022-11-20T01:40:58;100588.31;;;0.25;95.46
56084;BME280;41958;52.416;13.428;2022-11-20T01:43:23;100587.22;;;0.21;95.46
56084;BME280;41958;52.416;13.428;2022-11-20T01:48:26;100586.63;;;0.29;95.01
56084;BME280;41958;52.416;13.428;2022-11-20T01:50:53;100580.03;;;0.30;95.16
56084;BME280;41958;52.416;13.428;2022-11-20T01:53:23;100581.44;;;0.22;95.17
56084;BME280;41958;52.416;13.428;2022-11-20T01:55:52;100577.03;;;0.26;94.96
56084;BME280;41958;52.416;13.428;2022-11-20T01:58:25;100580.56;;;0.32;94.56
56084;BME280;41958;52.416;13.428;2022-11-20T02:00:52;100573.41;;;0.31;95.91
56084;BME280;41958;52.416;13.428;2022-11-20T02:03:19;100575.63;;;0.29;95.16
56084;BME280;41958;52.416;13.428;2022-11-20T02:05:49;100577.53;;;0.28;94.63
56084;BME280;41958;52.416;13.428;2022-11-20T02:08:17;100568.50;;;0.28;94.42
56084;BME280;41958;52.416;13.428;2022-11-20T02:10:42;100567.72;;;0.22;94.11
56084;BME280;41958;52.416;13.428;2022-11-20T02:13:08;100569.63;;;0.22;94.60
56084;BME280;41958;52.416;13.428;2022-11-20T02:15:52;100564.13;;;0.22;94.61
56084;BME280;41958;52.416;13.428;2022-11-20T02:18:19;100560.28;;;0.23;94.74
56084;BME280;41958;52.416;13.428;2022-11-20T02:20:46;100550.16;;;0.13;94.75
56084;BME280;41958;52.416;13.428;2022-11-20T02:23:17;100550.66;;;0.20;94.77
56084;BME280;41958;52.416;13.428;2022-11-20T02:25:45;100551.78;;;0.19;95.50
56084;BME280;41958;52.416;13.428;2022-11-20T02:28:12;100558.16;;;0.09;94.85
56084;BME280;41958;52.416;13.428;2022-11-20T02:30:37;100557.28;;;0.19;94.77
56084;BME280;41958;52.416;13.428;2022-11-20T02:33:02;100550.72;;;0.15;94.31
56084;BME280;41958;52.416;13.428;2022-11-20T02:37:54;100556.47;;;0.13;93.78
56084;BME280;41958;52.416;13.428;2022-11-20T02:40:21;100550.72;;;0.15;94.27
56084;BME280;41958;52.416;13.428;2022-11-20T02:42:46;100556.22;;;0.15;94.55
56084;BME280;41958;52.416;13.428;2022-11-20T02:45:12;100543.88;;;0.12;94.10
56084;BME280;41958;52.416;13.428;2022-11-20T02:47:37;100547.41;;;0.13;94.67
56084;BME280;41958;52.416;13.428;2022-11-20T02:50:03;100547.72;;;0.11;94.53
56084;BME280;41958;52.416;13.428;2022-11-20T02:52:29;100536.75;;;0.06;95.14
56084;BME280;41958;52.416;13.428;2022-11-20T02:54:54;100538.41;;;0.02;94.60
56084;BME280;41958;52.416;13.428;2022-11-20T02:57:20;100537.91;;;0.00;94.94
56084;BME280;41958;52.416;13.428;2022-11-20T02:59:45;100528.53;;;0.01;94.64
56084;BME280;41958;52.416;13.428;2022-11-20T03:02:10;100532.44;;;-0.05;94.42
56084;BME280;41958;52.416;13.428;2022-11-20T03:04:35;100534.03;;;0.01;94.66
56084;BME280;41958;52.416;13.428;2022-11-20T03:07:01;100531.28;;;0.01;94.24
56084;BME280;41958;52.416;13.428;2022-11-20T03:09:26;100539.53;;;-0.04;94.05
56084;BME280;41958;52.416;13.428;2022-11-20T03:11:51;100530.19;;;-0.03;94.60
56084;BME280;41958;52.416;13.428;2022-11-20T03:14:17;100536.53;;;-0.03;94.41
56084;BME280;41958;52.416;13.428;2022-11-20T03:16:42;100535.41;;;-0.02;94.34
56084;BME280;41958;52.416;13.428;2022-11-20T03:19:07;100534.88;;;-0.04;94.23
56084;BME280;41958;52.416;13.428;2022-11-20T03:21:33;100531.59;;;-0.06;94.19
56084;BME280;41958;52.416;13.428;2022-11-20T03:23:59;100525.03;;;-0.10;93.85
56084;BME280;41958;52.416;13.428;2022-11-20T03:26:26;100522.56;;;-0.11;93.73
56084;BME280;41958;52.416;13.428;2022-11-20T03:28:57;100520.97;;;-0.18;93.66
56084;BME280;41958;52.416;13.428;2022-11-20T03:31:28;100511.09;;;-0.24;93.42
56084;BME280;41958;52.416;13.428;2022-11-20T03:33:55;100518.25;;;-0.23;93.88
56084;BME280;41958;52.416;13.428;2022-11-20T03:36:20;100516.56;;;-0.13;94.18
56084;BME280;41958;52.416;13.428;2022-11-20T03:38:46;100516.81;;;-0.15;94.03
56084;BME280;41958;52.416;13.428;2022-11-20T03:41:18;100521.50;;;-0.15;93.94
56084;BME280;41958;52.416;13.428;2022-11-20T03:43:50;100517.09;;;-0.17;93.81
56084;BME280;41958;52.416;13.428;2022-11-20T03:46:16;100526.16;;;-0.11;94.52
56084;BME280;41958;52.416;13.428;2022-11-20T03:48:41;100521.47;;;-0.10;93.82
56084;BME280;41958;52.416;13.428;2022-11-20T03:53:35;100529.44;;;-0.14;94.30
56084;BME280;41958;52.416;13.428;2022-11-20T03:56:01;100524.81;;;-0.19;94.84
56084;BME280;41958;52.416;13.428;2022-11-20T03:58:26;100519.03;;;-0.17;94.16
56084;BME280;41958;52.416;13.428;2022-11-20T04:00:51;100528.34;;;-0.13;94.83
56084;BME280;41958;52.416;13.428;2022-11-20T04:03:16;100518.72;;;-0.10;95.00
56084;BME280;41958;52.416;13.428;2022-11-20T04:05:42;100518.69;;;-0.05;94.13
56084;BME280;41958;52.416;13.428;2022-11-20T04:08:07;100512.59;;;0.03;94.14
56084;BME280;41958;52.416;13.428;2022-11-20T04:10:33;100515.56;;;0.07;94.22
56084;BME280;41958;52.416;13.428;2022-11-20T04:12:58;100513.66;;;0.07;93.83
56084;BME280;41958;52.416;13.428;2022-11-20T04:15:23;100518.31;;;0.07;93.53
56084;BME280;41958;52.416;13.428;2022-11-20T04:17:49;100512.03;;;0.01;93.69
56084;BME280;41958;52.416;13.428;2022-11-20T04:20:14;100511.75;;;0.03;93.98
56084;BME280;41958;52.416;13.428;2022-11-20T04:22:39;100519.50;;;-0.05;93.78
56084;BME280;41958;52.416;13.428;2022-11-20T04:25:05;100516.16;;;0.04;93.83
56084;BME280;41958;52.416;13.428;2022-11-20T04:27:30;100519.41;;;0.11;93.66
56084;BME280;41958;52.416;13.428;2022-11-20T04:29:55;100512.00;;;0.11;93.37
56084;BME280;41958;52.416;13.428;2022-11-20T04:32:21;100517.19;;;0.13;93.82
56084;BME280;41958;52.416;13.428;2022-11-20T04:34:46;100513.06;;;0.15;93.85
56084;BME280;41958;52.416;13.428;2022-11-20T04:37:11;100516.66;;;0.11;93.97
56084;BME280;41958;52.416;13.428;2022-11-20T04:39:36;100502.69;;;0.07;93.35
56084;BME280;41958;52.416;13.428;2022-11-20T04:42:02;100508.91;;;0.23;93.15
56084;BME280;41958;52.416;13.428;2022-11-20T04:44:46;100508.84;;;0.28;92.88
56084;BME280;41958;52.416;13.428;2022-11-20T04:47:11;100508.84;;;0.28;92.42
56084;BME280;41958;52.416;13.428;2022-11-20T04:49:36;100503.66;;;0.22;92.35
56084;BME280;41958;52.416;13.428;2022-11-20T04:52:01;100505.53;;;0.31;92.93
56084;BME280;41958;52.416;13.428;2022-11-20T04:54:27;100500.91;;;0.22;93.19
56084;BME280;41958;52.416;13.428;2022-11-20T04:56:52;100493.47;;;0.27;93.01
56084;BME280;41958;52.416;13.428;2022-11-20T04:59:17;100495.16;;;0.23;93.18
56084;BME280;41958;52.416;13.428;2022-11-20T05:01:43;100482.22;;;0.24;92.98
56084;BME280;41958;52.416;13.428;2022-11-20T05:04:09;100488.00;;;0.22;92.76
56084;BME280;41958;52.416;13.428;2022-11-20T05:06:34;100490.22;;;0.20;93.02
56084;BME280;41958;52.416;13.428;2022-11-20T05:08:59;100487.91;;;0.32;93.05
56084;BME280;41958;52.416;13.428;2022-11-20T05:11:26;100476.72;;;0.24;92.87
56084;BME280;41958;52.416;13.428;2022-11-20T05:13:54;100474.56;;;0.21;93.34
56084;BME280;41958;52.416;13.428;2022-11-20T05:16:21;100481.94;;;0.25;93.40
56084;BME280;41958;52.416;13.428;2022-11-20T05:18:47;100473.72;;;0.20;93.17
56084;BME280;41958;52.416;13.428;2022-11-20T05:21:13;100469.53;;;0.28;92.97
56084;BME280;41958;52.416;13.428;2022-11-20T05:23:39;100469.06;;;0.21;93.53
56084;BME280;41958;52.416;13.428;2022-11-20T05:26:06;100469.56;;;0.23;94.05
56084;BME280;41958;52.416;13.428;2022-11-20T05:28:33;100467.84;;;0.32;93.44
56084;BME280;41958;52.416;13.428;2022-11-20T05:31:09;100476.91;;;0.32;92.87
56084;BME280;41958;52.416;13.428;2022-11-20T05:33:35;100473.91;;;0.34;93.08
56084;BME280;41958;52.416;13.428;2022-11-20T05:36:02;100469.47;;;0.38;93.50
56084;BME280;41958;52.416;13.428;2022-11-20T05:38:28;100478.78;;;0.42;92.87
56084;BME280;41958;52.416;13.428;2022-11-20T05:40:53;100478.22;;;0.40;93.43
56084;BME280;41958;52.416;13.428;2022-11-20T05:43:18;100484.06;;;0.33;93.25
56084;BME280;41958;52.416;13.428;2022-11-20T05:45:54;100475.19;;;0.42;93.94
56084;BME280;41958;52.416;13.428;2022-11-20T05:48:19;100467.81;;;0.37;93.17
56084;BME280;41958;52.416;13.428;2022-11-20T05:50:44;100465.03;;;0.42;94.38
56084;BME280;41958;52.416;13.428;2022-11-20T05:53:09;100468.59;;;0.43;92.66
56084;BME280;41958;52.416;13.428;2022-11-20T05:55:35;100468.84;;;0.46;93.65
56084;BME280;41958;52.416;13.428;2022-11-20T05:58:00;100462.03;;;0.39;93.31
56084;BME280;41958;52.416;13.428;2022-11-20T06:00:25;100457.31;;;0.44;92.85
56084;BME280;41958;52.416;13.428;2022-11-20T06:02:50;100462.84;;;0.39;92.36
56084;BME280;41958;52.416;13.428;2022-11-20T06:05:16;100451.59;;;0.41;93.24
56084;BME280;41958;52.416;13.428;2022-11-20T06:07:41;100462.75;;;0.49;93.70
56084;BME280;41958;52.416;13.428;2022-11-20T06:10:06;100465.81;;;0.48;93.01
56084;BME280;41958;52.416;13.428;2022-11-20T06:12:32;100463.44;;;0.36;92.88
56084;BME280;41958;52.416;13.428;2022-11-20T06:14:58;100459.13;;;0.25;94.28
56084;BME280;41958;52.416;13.428;2022-11-20T06:17:23;100456.16;;;0.16;93.65
56084;BME280;41958;52.416;13.428;2022-11-20T06:19:48;100459.44;;;0.23;94.33
56084;BME280;41958;52.416;13.428;2022-11-20T06:22:14;100461.88;;;0.25;94.36
56084;BME280;41958;52.416;13.428;2022-11-20T06:24:39;100457.81;;;0.17;94.10
56084;BME280;41958;52.416;13.428;2022-11-20T06:27:04;100458.88;;;0.21;93.67
56084;BME280;41958;52.416;13.428;2022-11-20T06:29:29;100462.66;;;0.30;94.02
56084;BME280;41958;52.416;13.428;2022-11-20T06:31:55;100465.69;;;0.29;94.24
56084;BME280;41958;52.416;13.428;2022-11-20T06:34:20;100462.66;;;0.30;93.69
56084;BME280;41958;52.416;13.428;2022-11-20T06:36:45;100464.31;;;0.31;93.33
56084;BME280;41958;52.416;13.428;2022-11-20T06:39:11;100469.47;;;0.38;94.50
56084;BME280;41958;52.416;13.428;2022-11-20T06:41:36;100471.94;;;0.40;93.83
56084;BME280;41958;52.416;13.428;2022-11-20T06:44:04;100467.25;;;0.40;94.01
56084;BME280;41958;52.416;13.428;2022-11-20T06:46:30;100463.34;;;0.46;93.42
56084;BME280;41958;52.416;13.428;2022-11-20T06:48:55;100470.28;;;0.39;93.57
56084;BME280;41958;52.416;13.428;2022-11-20T06:51:20;100461.59;;;0.26;92.77
56084;BME280;41958;52.416;13.428;2022-11-20T06:53:46;100457.66;;;0.32;93.54
56084;BME280;41958;52.416;13.428;2022-11-20T06:56:11;100457.75;;;0.27;94.60
56084;BME280;41958;52.416;13.428;2022-11-20T06:58:37;100457.97;;;0.31;94.41
56084;BME280;41958;52.416;13.428;2022-11-20T07:01:04;100446.53;;;0.19;93.87
56084;BME280;41958;52.416;13.428;2022-11-20T07:03:30;100457.03;;;0.11;93.82
56084;BME280;41958;52.416;13.428;2022-11-20T07:05:56;100458.28;;;0.24;93.72
56084;BME280;41958;52.416;13.428;2022-11-20T07:08:23;100460.56;;;0.17;93.64
56084;BME280;41958;52.416;13.428;2022-11-20T07:10:48;100460.81;;;0.21;94.21
56084;BME280;41958;52.416;13.428;2022-11-20T07:13:14;100459.19;;;0.14;94.84
56084;BME280;41958;52.416;13.428;2022-11-20T07:15:39;100458.06;;;0.21;94.29
56084;BME280;41958;52.416;13.428;2022-11-20T07:18:04;100457.81;;;0.17;94.06
56084;BME280;41958;52.416;13.428;2022-11-20T07:20:29;100461.75;;;0.06;93.44
56084;BME280;41958;52.416;13.428;2022-11-20T07:22:55;100459.75;;;0.16;93.84
56084;BME280;41958;52.416;13.428;2022-11-20T07:25:22;100443.03;;;0.08;94.49
56084;BME280;41958;52.416;13.428;2022-11-20T07:27:47;100442.19;;;0.12;93.53
56084;BME280;41958;52.416;13.428;2022-11-20T07:30:13;100445.81;;;0.03;93.29
56084;BME280;41958;52.416;13.428;2022-11-20T07:32:39;100448.03;;;0.06;93.15
56084;BME280;41958;52.416;13.428;2022-11-20T07:35:04;100447.25;;;0.00;93.66
56084;BME280;41958;52.416;13.428;2022-11-20T07:37:29;100448.69;;;-0.13;94.16
56084;BME280;41958;52.416;13.428;2022-11-20T07:39:55;100451.94;;;-0.06;93.88
56084;BME280;41958;52.416;13.428;2022-11-20T07:42:20;100450.84;;;-0.10;93.47
56084;BME280;41958;52.416;13.428;2022-11-20T07:44:45;100449.69;;;0.02;93.22
56084;BME280;41958;52.416;13.428;2022-11-20T07:47:10;100449.16;;;-0.01;93.81
56084;BME280;41958;52.416;13.428;2022-11-20T07:49:36;100443.63;;;0.05;93.58
56084;BME280;41958;52.416;13.428;2022-11-20T07:52:01;100444.69;;;0.09;93.11
56084;BME280;41958;52.416;13.428;2022-11-20T07:54:26;100443.94;;;-0.02;92.72
56084;BME280;41958;52.416;13.428;2022-11-20T07:56:51;100434.09;;;-0.08;93.40
56084;BME280;41958;52.416;13.428;2022-11-20T07:59:17;100439.91;;;-0.15;93.68
56084;BME280;41958;52.416;13.428;2022-11-20T08:01:42;100435.09;;;0.06;93.36
56084;BME280;41958;52.416;13.428;2022-11-20T08:04:08;100430.63;;;0.15;93.01
56084;BME280;41958;52.416;13.428;2022-11-20T08:06:34;100435.03;;;0.16;93.25
56084;BME280;41958;52.416;13.428;2022-11-20T08:08:59;100442.66;;;0.25;92.61
56084;BME280;41958;52.416;13.428;2022-11-20T08:11:25;100437.88;;;0.36;92.96
56084;BME280;41958;52.416;13.428;2022-11-20T08:14:09;100437.34;;;0.33;92.37
56084;BME280;41958;52.416;13.428;2022-11-20T08:16:44;100430.47;;;0.31;92.13
56084;BME280;41958;52.416;13.428;2022-11-20T08:19:09;100431.50;;;0.40;92.75
56084;BME280;41958;52.416;13.428;2022-11-20T08:21:35;100426.88;;;0.36;92.92
56084;BME280;41958;52.416;13.428;2022-11-20T08:24:00;100428.25;;;0.38;92.47
56084;BME280;41958;52.416;13.428;2022-11-20T08:26:26;100437.84;;;0.41;92.37
56084;BME280;41958;52.416;13.428;2022-11-20T08:28:57;100413.75;;;0.27;93.05
56084;BME280;41958;52.416;13.428;2022-11-20T08:31:24;100436.56;;;0.57;92.30
56084;BME280;41958;52.416;13.428;2022-11-20T08:33:50;100427.31;;;0.48;91.91
56084;BME280;41958;52.416;13.428;2022-11-20T08:36:16;100433.16;;;0.41;92.23
56084;BME280;41958;52.416;13.428;2022-11-20T08:38:42;100438.69;;;0.36;91.53
56084;BME280;41958;52.416;13.428;2022-11-20T08:41:07;100432.13;;;0.32;90.94
56084;BME280;41958;52.416;13.428;2022-11-20T08:44:01;100434.47;;;0.49;91.38
56084;BME280;41958;52.416;13.428;2022-11-20T08:46:32;100434.16;;;0.50;90.80
56084;BME280;41958;52.416;13.428;2022-11-20T08:48:58;100434.63;;;0.58;90.66
56084;BME280;41958;52.416;13.428;2022-11-20T08:51:24;100434.03;;;0.61;90.68
56084;BME280;41958;52.416;13.428;2022-11-20T08:53:49;100417.97;;;0.49;90.15
56084;BME280;41958;52.416;13.428;2022-11-20T08:56:15;100421.28;;;0.46;90.61
56084;BME280;41958;52.416;13.428;2022-11-20T08:58:40;100421.94;;;0.62;91.07
56084;BME280;41958;52.416;13.428;2022-11-20T09:01:06;100414.63;;;0.52;90.58
56084;BME280;41958;52.416;13.428;2022-11-20T09:03:34;100411.97;;;0.42;90.59
56084;BME280;41958;52.416;13.428;2022-11-20T09:06:01;100418.72;;;0.55;89.76
56084;BME280;41958;52.416;13.428;2022-11-20T09:08:27;100405.41;;;0.38;89.74
56084;BME280;41958;52.416;13.428;2022-11-20T09:10:53;100426.72;;;0.51;89.18
56084;BME280;41958;52.416;13.428;2022-11-20T09:13:20;100430.66;;;0.45;89.06
56084;BME280;41958;52.416;13.428;2022-11-20T09:15:46;100440.19;;;0.23;89.37
56084;BME280;41958;52.416;13.428;2022-11-20T09:18:11;100437.59;;;0.37;89.06
56084;BME280;41958;52.416;13.428;2022-11-20T09:20:36;100446.13;;;0.36;89.51
56084;BME280;41958;52.416;13.428;2022-11-20T09:23:02;100435.97;;;0.31;89.93
56084;BME280;41958;52.416;13.428;2022-11-20T09:25:27;100427.78;;;0.26;90.96
56084;BME280;41958;52.416;13.428;2022-11-20T09:27:59;100428.28;;;0.33;91.71
56084;BME280;41958;52.416;13.428;2022-11-20T09:30:25;100435.13;;;0.36;89.27
56084;BME280;41958;52.416;13.428;2022-11-20T09:32:51;100431.63;;;0.54;90.76
56084;BME280;41958;52.416;13.428;2022-11-20T09:35:16;100431.25;;;0.37;90.90
56084;BME280;41958;52.416;13.428;2022-11-20T09:37:42;100435.94;;;0.36;90.13
56084;BME280;41958;52.416;13.428;2022-11-20T09:40:19;100421.56;;;0.44;90.82
56084;BME280;41958;52.416;13.428;2022-11-20T09:42:49;100417.06;;;0.54;90.19
56084;BME280;41958;52.416;13.428;2022-11-20T09:50:31;100419.91;;;0.73;88.89
56084;BME280;41958;52.416;13.428;2022-11-20T09:53:11;100422.69;;;0.67;89.41
56084;BME280;41958;52.416;13.428;2022-11-20T09:55:38;100416.28;;;0.53;88.56
56084;BME280;41958;52.416;13.428;2022-11-20T09:58:06;100417.38;;;0.52;88.99
56084;BME280;41958;52.416;13.428;2022-11-20T10:00:34;100404.78;;;0.46;88.48
56084;BME280;41958;52.416;13.428;2022-11-20T10:05:45;100417.72;;;0.45;89.26
56084;BME280;41958;52.416;13.428;2022-11-20T10:08:19;100408.03;;;0.53;89.91
56084;BME280;41958;52.416;13.428;2022-11-20T10:10:50;100401.75;;;0.72;89.99
56084;BME280;41958;52.416;13.428;2022-11-20T10:13:42;100410.22;;;0.80;88.36
56084;BME280;41958;52.416;13.428;2022-11-20T10:16:36;100406.78;;;0.64;91.00
56084;BME280;41958;52.416;13.428;2022-11-20T10:22:04;100404.47;;;0.77;89.64
56084;BME280;41958;52.416;13.428;2022-11-20T10:24:52;100407.69;;;0.60;88.05
56084;BME280;41958;52.416;13.428;2022-11-20T10:30:15;100402.16;;;0.84;88.20
56084;BME280;41958;52.416;13.428;2022-11-20T10:32:43;100403.31;;;0.83;88.52
56084;BME280;41958;52.416;13.428;2022-11-20T10:37:41;100408.59;;;0.74;88.82
56084;BME280;41958;52.416;13.428;2022-11-20T10:42:43;100392.28;;;0.83;90.76
56084;BME280;41958;52.416;13.428;2022-11-20T10:48:25;100393.91;;;0.84;90.04
56084;BME280;41958;52.416;13.428;2022-11-20T10:53:47;100387.59;;;1.08;89.65
56084;BME280;41958;52.416;13.428;2022-11-20T10:58:50;100384.38;;;1.00;89.42
56084;BME280;41958;52.416;13.428;2022-11-20T11:01:19;100382.94;;;1.03;88.58
56084;BME280;41958;52.416;13.428;2022-11-20T11:03:48;100383.19;;;1.07;89.28
56084;BME280;41958;52.416;13.428;2022-11-20T11:09:04;100380.19;;;1.03;89.34
56084;BME280;41958;52.416;13.428;2022-11-20T11:11:33;100380.09;;;1.13;90.26
56084;BME280;41958;52.416;13.428;2022-11-20T11:14:13;100370.66;;;1.20;91.31
56084;BME280;41958;52.416;13.428;2022-11-20T11:16:53;100379.13;;;1.23;89.76
56084;BME280;41958;52.416;13.428;2022-11-20T11:19:18;100377.34;;;1.32;89.26
56084;BME280;41958;52.416;13.428;2022-11-20T11:21:50;100370.19;;;1.31;87.93
56084;BME280;41958;52.416;13.428;2022-11-20T11:24:24;100367.13;;;1.14;88.76
56084;BME280;41958;52.416;13.428;2022-11-20T11:26:52;100362.16;;;1.16;88.47
56084;BME280;41958;52.416;13.428;2022-11-20T11:29:18;100359.66;;;1.39;88.33
56084;BME280;41958;52.416;13.428;2022-11-20T11:31:43;100357.19;;;1.56;88.90
56084;BME280;41958;52.416;13.428;2022-11-20T11:34:14;100352.69;;;1.79;87.41
56084;BME280;41958;52.416;13.428;2022-11-20T11:36:41;100355.66;;;1.83;86.86
56084;BME280;41958;52.416;13.428;2022-11-20T11:39:14;100347.22;;;1.93;85.33
56084;BME280;41958;52.416;13.428;2022-11-20T11:41:40;100343.56;;;1.98;85.01
56084;BME280;41958;52.416;13.428;2022-11-20T11:44:18;100345.44;;;2.02;85.92
56084;BME280;41958;52.416;13.428;2022-11-20T11:47:04;100345.84;;;2.10;85.74
56084;BME280;41958;52.416;13.428;2022-11-20T11:49:30;100348.03;;;1.94;84.33
56084;BME280;41958;52.416;13.428;2022-11-20T11:52:01;100351.66;;;2.08;84.59
56084;BME280;41958;52.416;13.428;2022-11-20T11:54:50;100352.34;;;2.00;84.00
56084;BME280;41958;52.416;13.428;2022-11-20T11:57:45;100345.66;;;1.87;84.99
56084;BME280;41958;52.416;13.428;2022-11-20T12:07:43;100329.84;;;2.12;83.92
56084;BME280;41958;52.416;13.428;2022-11-20T12:10:23;100327.50;;;2.33;84.53
56084;BME280;41958;52.416;13.428;2022-11-20T12:13:01;100330.47;;;2.23;83.49
56084;BME280;41958;52.416;13.428;2022-11-20T12:15:31;100335.16;;;2.36;83.75
56084;BME280;41958;52.416;13.428;2022-11-20T12:17:58;100339.16;;;2.30;82.77
56084;BME280;41958;52.416;13.428;2022-11-20T12:20:30;100340.88;;;2.40;82.46
56084;BME280;41958;52.416;13.428;2022-11-20T12:23:09;100333.94;;;2.42;83.68
56084;BME280;41958;52.416;13.428;2022-11-20T12:25:43;100332.75;;;2.48;83.66
56084;BME280;41958;52.416;13.428;2022-11-20T12:28:31;100320.88;;;2.62;83.42
56084;BME280;41958;52.416;13.428;2022-11-20T12:31:27;100315.97;;;2.73;84.83
56084;BME280;41958;52.416;13.428;2022-11-20T12:34:13;100314.78;;;2.51;82.66
56084;BME280;41958;52.416;13.428;2022-11-20T12:39:33;100319.66;;;2.54;83.97
56084;BME280;41958;52.416;13.428;2022-11-20T12:45:20;100307.88;;;2.34;83.62
56084;BME280;41958;52.416;13.428;2022-11-20T12:51:01;100309.94;;;2.43;85.06
56084;BME280;41958;52.416;13.428;2022-11-20T12:53:47;100311.47;;;2.49;85.55
56084;BME280;41958;52.416;13.428;2022-11-20T12:56:31;100310.78;;;2.29;86.44
56084;BME280;41958;52.416;13.428;2022-11-20T13:02:24;100310.16;;;2.32;86.96
56084;BME280;41958;52.416;13.428;2022-11-20T13:07:39;100303.78;;;2.04;88.55
56084;BME280;41958;52.416;13.428;2022-11-20T13:10:15;100299.69;;;2.15;89.92
56084;BME280;41958;52.416;13.428;2022-11-20T13:12:46;100298.75;;;2.06;90.12
56084;BME280;41958;52.416;13.428;2022-11-20T13:15:33;100292.28;;;1.83;91.34
56084;BME280;41958;52.416;13.428;2022-11-20T13:18:02;100296.47;;;1.80;92.32
56084;BME280;41958;52.416;13.428;2022-11-20T13:20:29;100289.63;;;1.78;91.82
56084;BME280;41958;52.416;13.428;2022-11-20T13:22:56;100288.63;;;1.88;91.98
56084;BME280;41958;52.416;13.428;2022-11-20T13:25:34;100293.06;;;1.69;92.76
56084;BME280;41958;52.416;13.428;2022-11-20T13:28:05;100285.94;;;1.68;93.32
56084;BME280;41958;52.416;13.428;2022-11-20T13:30:50;100271.84;;;1.70;94.41
56084;BME280;41958;52.416;13.428;2022-11-20T13:33:36;100275.00;;;1.63;93.35
56084;BME280;41958;52.416;13.428;2022-11-20T13:36:05;100269.19;;;1.65;93.57
56084;BME280;41958;52.416;13.428;2022-11-20T13:38:47;100275.38;;;1.57;93.55
56084;BME280;41958;52.416;13.428;2022-11-20T13:41:33;100267.53;;;1.64;93.35
56084;BME280;41958;52.416;13.428;2022-11-20T13:44:15;100266.13;;;1.66;93.14
56084;BME280;41958;52.416;13.428;2022-11-20T13:46:48;100269.06;;;1.56;93.29
56084;BME280;41958;52.416;13.428;2022-11-20T13:49:27;100268.19;;;1.42;93.35
56084;BME280;41958;52.416;13.428;2022-11-20T13:52:07;100264.91;;;1.40;94.42
56084;BME280;41958;52.416;13.428;2022-11-20T13:57:52;100266.13;;;1.33;94.74
56084;BME280;41958;52.416;13.428;2022-11-20T14:00:23;100276.16;;;1.43;95.03